sensor_id;sensor_type;location;lat;lon;timestamp;temperature;humidity
30889;DHT22;51092;50.874;7.024;2022-12-16T00:00:12;-5.50;99.90
30889;DHT22;51092;50.874;7.024;2022-12-16T00:01:16;-5.50;99.90
30889;DHT22;51092;50.874;7.024;2022-12-16T00:02:19;-5.40;99.90
30889;DHT22;51092;50.874;7.024;2022-12-16T00:03:20;-5.30;99.90
30889;DHT22;51092;50.874;7.024;2022-12-16T00:04:23;-5.20;99.90
30889;DHT22;51092;50.874;7.024;2022-12-16T00:05:26;-5.10;99.90
30889;DHT22;51092;50.874;7.024;2022-12-16T00:06:30;-5.00;99.90
30889;DHT22;51092;50.874;7.024;2022-12-16T00:07:33;-5.00;99.90
30889;DHT22;51092;50.874;7.024;2022-12-16T00:08:37;-4.90;99.90
30889;DHT22;51092;50.874;7.024;2022-12-16T00:09:40;-4.90;99.90
30889;DHT22;51092;50.874;7.024;2022-12-16T00:10:43;-5.20;99.90
30889;DHT22;51092;50.874;7.024;2022-12-16T00:11:54;-5.30;99.90
30889;DHT22;51092;50.874;7.024;2022-12-16T00:12:56;-5.40;99.90
30889;DHT22;51092;50.874;7.024;2022-12-16T00:13:58;-5.50;99.90
30889;DHT22;51092;50.874;7.024;2022-12-16T00:15:00;-5.50;99.90
30889;DHT22;51092;50.874;7.024;2022-12-16T00:16:04;-5.50;99.90
30889;DHT22;51092;50.874;7.024;2022-12-16T00:17:06;-5.50;99.90
30889;DHT22;51092;50.874;7.024;2022-12-16T00:18:08;-5.40;99.90
30889;DHT22;51092;50.874;7.024;2022-12-16T00:19:10;-5.30;99.90
30889;DHT22;51092;50.874;7.024;2022-12-16T00:20:12;-5.30;99.90
30889;DHT22;51092;50.874;7.024;2022-12-16T00:21:14;-5.30;99.90
30889;DHT22;51092;50.874;7.024;2022-12-16T00:22:18;-5.20;99.90
30889;DHT22;51092;50.874;7.024;2022-12-16T00:23:19;-5.10;99.90
30889;DHT22;51092;50.874;7.024;2022-12-16T00:24:21;-5.10;99.90
30889;DHT22;51092;50.874;7.024;2022-12-16T00:25:22;-5.00;99.90
30889;DHT22;51092;50.874;7.024;2022-12-16T00:26:26;-5.00;99.90
30889;DHT22;51092;50.874;7.024;2022-12-16T00:27:29;-5.00;99.90
30889;DHT22;51092;50.874;7.024;2022-12-16T00:28:32;-5.00;99.90
30889;DHT22;51092;50.874;7.024;2022-12-16T00:29:34;-4.90;99.90
30889;DHT22;51092;50.874;7.024;2022-12-16T00:30:36;-4.90;99.90
30889;DHT22;51092;50.874;7.024;2022-12-16T00:31:38;-5.00;99.90
30889;DHT22;51092;50.874;7.024;2022-12-16T00:32:40;-5.00;99.90
30889;DHT22;51092;50.874;7.024;2022-12-16T00:33:42;-5.00;99.90
30889;DHT22;51092;50.874;7.024;2022-12-16T00:34:45;-5.00;99.90
30889;DHT22;51092;50.874;7.024;2022-12-16T00:35:47;-5.10;99.90
30889;DHT22;51092;50.874;7.024;2022-12-16T00:36:50;-5.20;99.90
30889;DHT22;51092;50.874;7.024;2022-12-16T00:37:52;-5.20;99.90
30889;DHT22;51092;50.874;7.024;2022-12-16T00:38:54;-5.10;99.90
30889;DHT22;51092;50.874;7.024;2022-12-16T00:39:56;-5.10;99.90
30889;DHT22;51092;50.874;7.024;2022-12-16T00:40:58;-5.20;99.90
30889;DHT22;51092;50.874;7.024;2022-12-16T00:42:01;-5.20;99.90
30889;DHT22;51092;50.874;7.024;2022-12-16T00:43:04;-5.10;99.90
30889;DHT22;51092;50.874;7.024;2022-12-16T00:44:05;-5.10;99.90
30889;DHT22;51092;50.874;7.024;2022-12-16T00:45:08;-5.10;99.90
30889;DHT22;51092;50.874;7.024;2022-12-16T00:46:10;-5.20;99.90
30889;DHT22;51092;50.874;7.024;2022-12-16T00:47:12;-5.30;99.90
30889;DHT22;51092;50.874;7.024;2022-12-16T00:48:14;-5.30;99.90
30889;DHT22;51092;50.874;7.024;2022-12-16T00:49:17;-5.30;99.90
30889;DHT22;51092;50.874;7.024;2022-12-16T00:50:18;-5.40;99.90
30889;DHT22;51092;50.874;7.024;2022-12-16T00:51:21;-5.40;99.90
30889;DHT22;51092;50.874;7.024;2022-12-16T00:52:22;-5.40;99.90
30889;DHT22;51092;50.874;7.024;2022-12-16T00:53:25;-5.40;99.90
30889;DHT22;51092;50.874;7.024;2022-12-16T00:54:27;-5.40;99.90
30889;DHT22;51092;50.874;7.024;2022-12-16T00:55:30;-5.40;99.90
30889;DHT22;51092;50.874;7.024;2022-12-16T00:56:33;-5.30;99.90
30889;DHT22;51092;50.874;7.024;2022-12-16T00:57:38;-5.40;99.90
30889;DHT22;51092;50.874;7.024;2022-12-16T00:58:40;-5.30;99.90
30889;DHT22;51092;50.874;7.024;2022-12-16T00:59:43;-5.30;99.90
30889;DHT22;51092;50.874;7.024;2022-12-16T01:00:44;-5.30;99.90
30889;DHT22;51092;50.874;7.024;2022-12-16T01:01:47;-5.30;99.90
30889;DHT22;51092;50.874;7.024;2022-12-16T01:02:49;-5.30;99.90
30889;DHT22;51092;50.874;7.024;2022-12-16T01:03:54;-5.30;99.90
30889;DHT22;51092;50.874;7.024;2022-12-16T01:04:56;-5.30;99.90
30889;DHT22;51092;50.874;7.024;2022-12-16T01:05:59;-5.30;99.90
30889;DHT22;51092;50.874;7.024;2022-12-16T01:07:01;-5.20;99.90
30889;DHT22;51092;50.874;7.024;2022-12-16T01:08:03;-5.30;99.90
30889;DHT22;51092;50.874;7.024;2022-12-16T01:09:05;-5.30;99.90
30889;DHT22;51092;50.874;7.024;2022-12-16T01:10:09;-5.30;99.90
30889;DHT22;51092;50.874;7.024;2022-12-16T01:11:10;-5.20;99.90
30889;DHT22;51092;50.874;7.024;2022-12-16T01:12:13;-5.20;99.90
30889;DHT22;51092;50.874;7.024;2022-12-16T01:13:16;-5.20;99.90
30889;DHT22;51092;50.874;7.024;2022-12-16T01:14:18;-5.20;99.90
30889;DHT22;51092;50.874;7.024;2022-12-16T01:15:21;-5.20;99.90
30889;DHT22;51092;50.874;7.024;2022-12-16T01:16:22;-5.20;99.90
30889;DHT22;51092;50.874;7.024;2022-12-16T01:17:25;-5.20;99.90
30889;DHT22;51092;50.874;7.024;2022-12-16T01:18:27;-5.20;99.90
30889;DHT22;51092;50.874;7.024;2022-12-16T01:19:29;-5.30;99.90
30889;DHT22;51092;50.874;7.024;2022-12-16T01:20:31;-5.40;99.90
30889;DHT22;51092;50.874;7.024;2022-12-16T01:21:34;-5.50;99.90
30889;DHT22;51092;50.874;7.024;2022-12-16T01:22:36;-5.50;99.90
30889;DHT22;51092;50.874;7.024;2022-12-16T01:23:38;-5.60;99.90
30889;DHT22;51092;50.874;7.024;2022-12-16T01:24:40;-5.60;99.90
30889;DHT22;51092;50.874;7.024;2022-12-16T01:25:42;-5.60;99.90
30889;DHT22;51092;50.874;7.024;2022-12-16T01:26:44;-5.60;99.90
30889;DHT22;51092;50.874;7.024;2022-12-16T01:27:46;-5.60;99.90
30889;DHT22;51092;50.874;7.024;2022-12-16T01:28:49;-5.70;99.90
30889;DHT22;51092;50.874;7.024;2022-12-16T01:29:52;-5.70;99.90
30889;DHT22;51092;50.874;7.024;2022-12-16T01:30:57;-5.70;99.90
30889;DHT22;51092;50.874;7.024;2022-12-16T01:32:01;-5.60;99.90
30889;DHT22;51092;50.874;7.024;2022-12-16T01:33:02;-5.60;99.90
30889;DHT22;51092;50.874;7.024;2022-12-16T01:34:04;-5.60;99.90
30889;DHT22;51092;50.874;7.024;2022-12-16T01:35:06;-5.50;99.90
30889;DHT22;51092;50.874;7.024;2022-12-16T01:36:09;-5.50;99.90
30889;DHT22;51092;50.874;7.024;2022-12-16T01:37:11;-5.50;99.90
30889;DHT22;51092;50.874;7.024;2022-12-16T01:38:14;-5.50;99.90
30889;DHT22;51092;50.874;7.024;2022-12-16T01:39:15;-5.40;99.90
30889;DHT22;51092;50.874;7.024;2022-12-16T01:40:20;-5.40;99.90
30889;DHT22;51092;50.874;7.024;2022-12-16T01:41:22;-5.50;99.90
30889;DHT22;51092;50.874;7.024;2022-12-16T01:42:25;-5.50;99.90
30889;DHT22;51092;50.874;7.024;2022-12-16T01:43:31;-5.50;99.90
30889;DHT22;51092;50.874;7.024;2022-12-16T01:44:35;-5.50;99.90
30889;DHT22;51092;50.874;7.024;2022-12-16T01:45:38;-5.50;99.90
30889;DHT22;51092;50.874;7.024;2022-12-16T01:46:40;-5.50;99.90
30889;DHT22;51092;50.874;7.024;2022-12-16T01:47:43;-5.50;99.90
30889;DHT22;51092;50.874;7.024;2022-12-16T01:48:47;-5.50;99.90
30889;DHT22;51092;50.874;7.024;2022-12-16T01:49:56;-5.50;99.90
30889;DHT22;51092;50.874;7.024;2022-12-16T01:51:02;-5.50;99.90
30889;DHT22;51092;50.874;7.024;2022-12-16T01:52:08;-5.40;99.90
30889;DHT22;51092;50.874;7.024;2022-12-16T01:53:12;-5.40;99.90
30889;DHT22;51092;50.874;7.024;2022-12-16T01:54:17;-5.50;99.90
30889;DHT22;51092;50.874;7.024;2022-12-16T01:55:26;-5.40;99.90
30889;DHT22;51092;50.874;7.024;2022-12-16T01:56:31;-5.40;99.90
30889;DHT22;51092;50.874;7.024;2022-12-16T01:57:36;-5.40;99.90
30889;DHT22;51092;50.874;7.024;2022-12-16T01:58:40;-5.50;99.90
30889;DHT22;51092;50.874;7.024;2022-12-16T01:59:46;-5.60;99.90
30889;DHT22;51092;50.874;7.024;2022-12-16T02:00:49;-5.70;99.90
30889;DHT22;51092;50.874;7.024;2022-12-16T02:01:51;-5.70;99.90
30889;DHT22;51092;50.874;7.024;2022-12-16T02:02:54;-5.60;99.90
30889;DHT22;51092;50.874;7.024;2022-12-16T02:04:00;-5.60;99.90
30889;DHT22;51092;50.874;7.024;2022-12-16T02:05:04;-5.70;99.90
30889;DHT22;51092;50.874;7.024;2022-12-16T02:06:21;-5.70;99.90
30889;DHT22;51092;50.874;7.024;2022-12-16T02:07:23;-5.70;99.90
30889;DHT22;51092;50.874;7.024;2022-12-16T02:08:25;-5.60;99.90
30889;DHT22;51092;50.874;7.024;2022-12-16T02:09:28;-5.60;99.90
30889;DHT22;51092;50.874;7.024;2022-12-16T02:10:38;-5.50;99.90
30889;DHT22;51092;50.874;7.024;2022-12-16T02:12:03;-5.50;99.90
30889;DHT22;51092;50.874;7.024;2022-12-16T02:13:18;-5.40;99.90
30889;DHT22;51092;50.874;7.024;2022-12-16T02:14:36;-5.40;99.90
30889;DHT22;51092;50.874;7.024;2022-12-16T02:15:45;-5.50;99.90
30889;DHT22;51092;50.874;7.024;2022-12-16T02:16:54;-5.50;99.90
30889;DHT22;51092;50.874;7.024;2022-12-16T02:18:06;-5.60;99.90
30889;DHT22;51092;50.874;7.024;2022-12-16T02:19:29;-5.80;99.90
30889;DHT22;51092;50.874;7.024;2022-12-16T02:22:14;-5.70;99.90
30889;DHT22;51092;50.874;7.024;2022-12-16T02:23:49;-5.70;99.90
30889;DHT22;51092;50.874;7.024;2022-12-16T02:28:32;-5.80;99.90
30889;DHT22;51092;50.874;7.024;2022-12-16T02:30:01;-5.90;99.90
30889;DHT22;51092;50.874;7.024;2022-12-16T02:31:15;-5.80;99.90
30889;DHT22;51092;50.874;7.024;2022-12-16T02:32:25;-5.80;99.90
30889;DHT22;51092;50.874;7.024;2022-12-16T02:33:39;-5.70;99.90
30889;DHT22;51092;50.874;7.024;2022-12-16T02:34:50;-5.80;99.90
30889;DHT22;51092;50.874;7.024;2022-12-16T02:35:59;-5.70;99.90
30889;DHT22;51092;50.874;7.024;2022-12-16T02:37:11;-5.70;99.90
30889;DHT22;51092;50.874;7.024;2022-12-16T02:38:20;-5.60;99.90
30889;DHT22;51092;50.874;7.024;2022-12-16T02:39:27;-5.60;99.90
30889;DHT22;51092;50.874;7.024;2022-12-16T02:40:36;-5.60;99.90
30889;DHT22;51092;50.874;7.024;2022-12-16T02:41:43;-5.70;99.90
30889;DHT22;51092;50.874;7.024;2022-12-16T02:42:52;-5.60;99.90
30889;DHT22;51092;50.874;7.024;2022-12-16T02:43:57;-5.70;99.90
30889;DHT22;51092;50.874;7.024;2022-12-16T02:45:05;-5.60;99.90
30889;DHT22;51092;50.874;7.024;2022-12-16T02:46:12;-5.50;99.90
30889;DHT22;51092;50.874;7.024;2022-12-16T02:47:14;-5.40;99.90
30889;DHT22;51092;50.874;7.024;2022-12-16T02:48:16;-5.50;99.90
30889;DHT22;51092;50.874;7.024;2022-12-16T02:49:42;-5.50;99.90
30889;DHT22;51092;50.874;7.024;2022-12-16T02:50:48;-5.40;99.90
30889;DHT22;51092;50.874;7.024;2022-12-16T02:51:50;-5.40;99.90
30889;DHT22;51092;50.874;7.024;2022-12-16T02:52:53;-5.40;99.90
30889;DHT22;51092;50.874;7.024;2022-12-16T02:53:56;-5.40;99.90
30889;DHT22;51092;50.874;7.024;2022-12-16T02:55:00;-5.40;99.90
30889;DHT22;51092;50.874;7.024;2022-12-16T02:56:08;-5.30;99.90
30889;DHT22;51092;50.874;7.024;2022-12-16T02:57:30;-5.40;99.90
30889;DHT22;51092;50.874;7.024;2022-12-16T02:58:39;-5.30;99.90
30889;DHT22;51092;50.874;7.024;2022-12-16T02:59:52;-5.30;99.90
30889;DHT22;51092;50.874;7.024;2022-12-16T03:01:05;-5.30;99.90
30889;DHT22;51092;50.874;7.024;2022-12-16T03:02:14;-5.40;99.90
30889;DHT22;51092;50.874;7.024;2022-12-16T03:03:23;-5.40;99.90
30889;DHT22;51092;50.874;7.024;2022-12-16T03:04:34;-5.40;99.90
30889;DHT22;51092;50.874;7.024;2022-12-16T03:05:39;-5.40;99.90
30889;DHT22;51092;50.874;7.024;2022-12-16T03:06:48;-5.40;99.90
30889;DHT22;51092;50.874;7.024;2022-12-16T03:07:51;-5.30;99.90
30889;DHT22;51092;50.874;7.024;2022-12-16T03:08:57;-5.40;99.90
30889;DHT22;51092;50.874;7.024;2022-12-16T03:10:00;-5.50;99.90
30889;DHT22;51092;50.874;7.024;2022-12-16T03:11:06;-5.60;99.90
30889;DHT22;51092;50.874;7.024;2022-12-16T03:12:11;-5.50;99.90
30889;DHT22;51092;50.874;7.024;2022-12-16T03:13:15;-5.40;99.90
30889;DHT22;51092;50.874;7.024;2022-12-16T03:14:19;-5.50;99.90
30889;DHT22;51092;50.874;7.024;2022-12-16T03:15:25;-5.40;99.90
30889;DHT22;51092;50.874;7.024;2022-12-16T03:16:31;-5.30;99.90
30889;DHT22;51092;50.874;7.024;2022-12-16T03:17:36;-5.30;99.90
30889;DHT22;51092;50.874;7.024;2022-12-16T03:18:41;-5.30;99.90
30889;DHT22;51092;50.874;7.024;2022-12-16T03:19:48;-5.30;99.90
30889;DHT22;51092;50.874;7.024;2022-12-16T03:20:53;-5.30;99.90
30889;DHT22;51092;50.874;7.024;2022-12-16T03:22:00;-5.40;99.90
30889;DHT22;51092;50.874;7.024;2022-12-16T03:23:07;-5.40;99.90
30889;DHT22;51092;50.874;7.024;2022-12-16T03:24:12;-5.40;99.90
30889;DHT22;51092;50.874;7.024;2022-12-16T03:25:14;-5.30;99.90
30889;DHT22;51092;50.874;7.024;2022-12-16T03:26:20;-5.30;99.90
30889;DHT22;51092;50.874;7.024;2022-12-16T03:27:28;-5.30;99.90
30889;DHT22;51092;50.874;7.024;2022-12-16T03:28:41;-5.30;99.90
30889;DHT22;51092;50.874;7.024;2022-12-16T03:29:45;-5.30;99.90
30889;DHT22;51092;50.874;7.024;2022-12-16T03:30:56;-5.30;99.90
30889;DHT22;51092;50.874;7.024;2022-12-16T03:32:04;-5.20;99.90
30889;DHT22;51092;50.874;7.024;2022-12-16T03:33:12;-5.30;99.90
30889;DHT22;51092;50.874;7.024;2022-12-16T03:34:24;-5.30;99.90
30889;DHT22;51092;50.874;7.024;2022-12-16T03:35:33;-5.30;99.90
30889;DHT22;51092;50.874;7.024;2022-12-16T03:36:38;-5.30;99.90
30889;DHT22;51092;50.874;7.024;2022-12-16T03:37:42;-5.40;99.90
30889;DHT22;51092;50.874;7.024;2022-12-16T03:38:46;-5.40;99.90
30889;DHT22;51092;50.874;7.024;2022-12-16T03:39:51;-5.30;99.90
30889;DHT22;51092;50.874;7.024;2022-12-16T03:40:55;-5.30;99.90
30889;DHT22;51092;50.874;7.024;2022-12-16T03:41:58;-5.30;99.90
30889;DHT22;51092;50.874;7.024;2022-12-16T03:43:02;-5.40;99.90
30889;DHT22;51092;50.874;7.024;2022-12-16T03:44:06;-5.50;99.90
30889;DHT22;51092;50.874;7.024;2022-12-16T03:45:13;-5.60;99.90
30889;DHT22;51092;50.874;7.024;2022-12-16T03:46:17;-5.60;99.90
30889;DHT22;51092;50.874;7.024;2022-12-16T03:47:20;-5.60;99.90
30889;DHT22;51092;50.874;7.024;2022-12-16T03:48:24;-5.70;99.90
30889;DHT22;51092;50.874;7.024;2022-12-16T03:49:27;-5.60;99.90
30889;DHT22;51092;50.874;7.024;2022-12-16T03:50:31;-5.70;99.90
30889;DHT22;51092;50.874;7.024;2022-12-16T03:51:34;-5.80;99.90
30889;DHT22;51092;50.874;7.024;2022-12-16T03:52:36;-5.90;99.90
30889;DHT22;51092;50.874;7.024;2022-12-16T03:53:38;-6.00;99.90
30889;DHT22;51092;50.874;7.024;2022-12-16T03:54:40;-6.10;99.90
30889;DHT22;51092;50.874;7.024;2022-12-16T03:55:42;-6.10;99.90
30889;DHT22;51092;50.874;7.024;2022-12-16T03:56:44;-6.10;99.90
30889;DHT22;51092;50.874;7.024;2022-12-16T03:57:47;-6.20;99.90
30889;DHT22;51092;50.874;7.024;2022-12-16T03:58:49;-6.10;99.90
30889;DHT22;51092;50.874;7.024;2022-12-16T03:59:51;-6.20;99.90
30889;DHT22;51092;50.874;7.024;2022-12-16T04:00:53;-6.30;99.90
30889;DHT22;51092;50.874;7.024;2022-12-16T04:01:56;-6.40;99.90
30889;DHT22;51092;50.874;7.024;2022-12-16T04:02:57;-6.50;99.90
30889;DHT22;51092;50.874;7.024;2022-12-16T04:04:01;-6.50;99.90
30889;DHT22;51092;50.874;7.024;2022-12-16T04:05:03;-6.50;99.90
30889;DHT22;51092;50.874;7.024;2022-12-16T04:06:06;-6.60;99.90
30889;DHT22;51092;50.874;7.024;2022-12-16T04:07:08;-6.50;99.90
30889;DHT22;51092;50.874;7.024;2022-12-16T04:08:24;-6.40;99.90
30889;DHT22;51092;50.874;7.024;2022-12-16T04:09:27;-6.30;99.90
30889;DHT22;51092;50.874;7.024;2022-12-16T04:10:29;-6.30;99.90
30889;DHT22;51092;50.874;7.024;2022-12-16T04:11:48;-6.30;99.90
30889;DHT22;51092;50.874;7.024;2022-12-16T04:13:08;-6.40;99.90
30889;DHT22;51092;50.874;7.024;2022-12-16T04:14:29;-6.30;99.90
30889;DHT22;51092;50.874;7.024;2022-12-16T04:15:49;-6.30;99.90
30889;DHT22;51092;50.874;7.024;2022-12-16T04:17:11;-6.30;99.90
30889;DHT22;51092;50.874;7.024;2022-12-16T04:18:30;-6.30;99.90
30889;DHT22;51092;50.874;7.024;2022-12-16T04:19:52;-6.30;99.90
30889;DHT22;51092;50.874;7.024;2022-12-16T04:21:12;-6.30;99.90
30889;DHT22;51092;50.874;7.024;2022-12-16T04:22:34;-6.20;99.90
30889;DHT22;51092;50.874;7.024;2022-12-16T04:23:56;-6.10;99.90
30889;DHT22;51092;50.874;7.024;2022-12-16T04:25:19;-6.10;99.90
30889;DHT22;51092;50.874;7.024;2022-12-16T04:26:23;-6.00;99.90
30889;DHT22;51092;50.874;7.024;2022-12-16T04:27:24;-6.00;99.90
30889;DHT22;51092;50.874;7.024;2022-12-16T04:28:26;-6.00;99.90
30889;DHT22;51092;50.874;7.024;2022-12-16T04:29:28;-6.10;99.90
30889;DHT22;51092;50.874;7.024;2022-12-16T04:30:31;-6.10;99.90
30889;DHT22;51092;50.874;7.024;2022-12-16T04:31:34;-6.20;99.90
30889;DHT22;51092;50.874;7.024;2022-12-16T04:32:37;-6.20;99.90
30889;DHT22;51092;50.874;7.024;2022-12-16T04:33:58;-6.20;99.90
30889;DHT22;51092;50.874;7.024;2022-12-16T04:35:18;-6.30;99.90
30889;DHT22;51092;50.874;7.024;2022-12-16T04:36:38;-6.40;99.90
30889;DHT22;51092;50.874;7.024;2022-12-16T04:37:58;-6.40;99.90
30889;DHT22;51092;50.874;7.024;2022-12-16T04:39:18;-6.40;99.90
30889;DHT22;51092;50.874;7.024;2022-12-16T04:40:37;-6.40;99.90
30889;DHT22;51092;50.874;7.024;2022-12-16T04:41:58;-6.30;99.90
30889;DHT22;51092;50.874;7.024;2022-12-16T04:43:18;-6.10;99.90
30889;DHT22;51092;50.874;7.024;2022-12-16T04:44:38;-6.20;99.90
30889;DHT22;51092;50.874;7.024;2022-12-16T04:45:57;-6.30;99.90
30889;DHT22;51092;50.874;7.024;2022-12-16T04:47:17;-6.30;99.90
30889;DHT22;51092;50.874;7.024;2022-12-16T04:48:36;-6.30;99.90
30889;DHT22;51092;50.874;7.024;2022-12-16T04:49:56;-6.30;99.90
30889;DHT22;51092;50.874;7.024;2022-12-16T04:51:18;-6.30;99.90
30889;DHT22;51092;50.874;7.024;2022-12-16T04:52:37;-6.30;99.90
30889;DHT22;51092;50.874;7.024;2022-12-16T04:53:57;-6.40;99.90
30889;DHT22;51092;50.874;7.024;2022-12-16T04:55:16;-6.50;99.90
30889;DHT22;51092;50.874;7.024;2022-12-16T04:56:36;-6.50;99.90
30889;DHT22;51092;50.874;7.024;2022-12-16T04:58:02;-6.50;99.90
30889;DHT22;51092;50.874;7.024;2022-12-16T04:59:23;-6.30;99.90
30889;DHT22;51092;50.874;7.024;2022-12-16T05:00:58;-6.20;99.90
30889;DHT22;51092;50.874;7.024;2022-12-16T05:02:18;-6.10;99.90
30889;DHT22;51092;50.874;7.024;2022-12-16T05:03:38;-6.20;99.90
30889;DHT22;51092;50.874;7.024;2022-12-16T05:04:59;-6.30;99.90
30889;DHT22;51092;50.874;7.024;2022-12-16T05:06:20;-6.20;99.90
30889;DHT22;51092;50.874;7.024;2022-12-16T05:07:40;-6.20;99.90
30889;DHT22;51092;50.874;7.024;2022-12-16T05:09:01;-6.10;99.90
30889;DHT22;51092;50.874;7.024;2022-12-16T05:10:21;-6.00;99.90
30889;DHT22;51092;50.874;7.024;2022-12-16T05:11:41;-6.00;99.90
30889;DHT22;51092;50.874;7.024;2022-12-16T05:13:01;-5.90;99.90
30889;DHT22;51092;50.874;7.024;2022-12-16T05:14:23;-5.90;99.90
30889;DHT22;51092;50.874;7.024;2022-12-16T05:15:42;-5.80;99.90
30889;DHT22;51092;50.874;7.024;2022-12-16T05:17:02;-5.80;99.90
30889;DHT22;51092;50.874;7.024;2022-12-16T05:18:21;-5.70;99.90
30889;DHT22;51092;50.874;7.024;2022-12-16T05:19:41;-5.50;99.90
30889;DHT22;51092;50.874;7.024;2022-12-16T05:21:02;-5.40;99.90
30889;DHT22;51092;50.874;7.024;2022-12-16T05:22:23;-5.40;99.90
30889;DHT22;51092;50.874;7.024;2022-12-16T05:23:43;-5.20;99.90
30889;DHT22;51092;50.874;7.024;2022-12-16T05:25:04;-5.30;99.90
30889;DHT22;51092;50.874;7.024;2022-12-16T05:26:24;-5.30;99.90
30889;DHT22;51092;50.874;7.024;2022-12-16T05:27:47;-5.20;99.90
30889;DHT22;51092;50.874;7.024;2022-12-16T05:29:08;-5.20;99.90
30889;DHT22;51092;50.874;7.024;2022-12-16T05:30:28;-5.20;99.90
30889;DHT22;51092;50.874;7.024;2022-12-16T05:31:48;-5.20;99.90
30889;DHT22;51092;50.874;7.024;2022-12-16T05:33:10;-5.10;99.90
30889;DHT22;51092;50.874;7.024;2022-12-16T05:34:35;-5.10;99.90
30889;DHT22;51092;50.874;7.024;2022-12-16T05:35:55;-5.00;99.90
30889;DHT22;51092;50.874;7.024;2022-12-16T05:37:15;-5.30;99.90
30889;DHT22;51092;50.874;7.024;2022-12-16T05:38:37;-5.30;99.90
30889;DHT22;51092;50.874;7.024;2022-12-16T05:39:57;-5.40;99.90
30889;DHT22;51092;50.874;7.024;2022-12-16T05:41:16;-5.40;99.90
30889;DHT22;51092;50.874;7.024;2022-12-16T05:42:36;-5.50;99.90
30889;DHT22;51092;50.874;7.024;2022-12-16T05:43:56;-5.50;99.90
30889;DHT22;51092;50.874;7.024;2022-12-16T05:45:16;-5.50;99.90
30889;DHT22;51092;50.874;7.024;2022-12-16T05:46:36;-5.50;99.90
30889;DHT22;51092;50.874;7.024;2022-12-16T05:47:56;-5.40;99.90
30889;DHT22;51092;50.874;7.024;2022-12-16T05:49:16;-5.40;99.90
30889;DHT22;51092;50.874;7.024;2022-12-16T05:50:36;-5.40;99.90
30889;DHT22;51092;50.874;7.024;2022-12-16T05:51:55;-5.40;99.90
30889;DHT22;51092;50.874;7.024;2022-12-16T05:53:14;-5.50;99.90
30889;DHT22;51092;50.874;7.024;2022-12-16T05:54:36;-5.50;99.90
30889;DHT22;51092;50.874;7.024;2022-12-16T05:55:56;-5.60;99.90
30889;DHT22;51092;50.874;7.024;2022-12-16T05:57:15;-5.60;99.90
30889;DHT22;51092;50.874;7.024;2022-12-16T05:58:35;-5.70;99.90
30889;DHT22;51092;50.874;7.024;2022-12-16T05:59:54;-5.80;99.90
30889;DHT22;51092;50.874;7.024;2022-12-16T06:01:14;-5.80;99.90
30889;DHT22;51092;50.874;7.024;2022-12-16T06:02:34;-5.80;99.90
30889;DHT22;51092;50.874;7.024;2022-12-16T06:03:54;-5.90;99.90
30889;DHT22;51092;50.874;7.024;2022-12-16T06:05:15;-5.80;99.90
30889;DHT22;51092;50.874;7.024;2022-12-16T06:06:35;-5.80;99.90
30889;DHT22;51092;50.874;7.024;2022-12-16T06:07:54;-5.80;99.90
30889;DHT22;51092;50.874;7.024;2022-12-16T06:09:14;-5.80;99.90
30889;DHT22;51092;50.874;7.024;2022-12-16T06:10:35;-5.80;99.90
30889;DHT22;51092;50.874;7.024;2022-12-16T06:11:57;-5.70;99.90
30889;DHT22;51092;50.874;7.024;2022-12-16T06:13:17;-5.80;99.90
30889;DHT22;51092;50.874;7.024;2022-12-16T06:14:36;-5.70;99.90
30889;DHT22;51092;50.874;7.024;2022-12-16T06:15:56;-5.70;99.90
30889;DHT22;51092;50.874;7.024;2022-12-16T06:17:16;-5.60;99.90
30889;DHT22;51092;50.874;7.024;2022-12-16T06:18:36;-5.80;99.90
30889;DHT22;51092;50.874;7.024;2022-12-16T06:19:56;-5.70;99.90
30889;DHT22;51092;50.874;7.024;2022-12-16T06:21:16;-5.90;99.90
30889;DHT22;51092;50.874;7.024;2022-12-16T06:22:36;-5.90;99.90
30889;DHT22;51092;50.874;7.024;2022-12-16T06:23:56;-5.90;99.90
30889;DHT22;51092;50.874;7.024;2022-12-16T06:25:16;-6.00;99.90
30889;DHT22;51092;50.874;7.024;2022-12-16T06:26:37;-6.10;99.90
30889;DHT22;51092;50.874;7.024;2022-12-16T06:27:56;-6.00;99.90
30889;DHT22;51092;50.874;7.024;2022-12-16T06:29:15;-5.90;99.90
30889;DHT22;51092;50.874;7.024;2022-12-16T06:30:36;-5.80;99.90
30889;DHT22;51092;50.874;7.024;2022-12-16T06:31:56;-5.80;99.90
30889;DHT22;51092;50.874;7.024;2022-12-16T06:33:16;-5.80;99.90
30889;DHT22;51092;50.874;7.024;2022-12-16T06:34:36;-5.80;99.90
30889;DHT22;51092;50.874;7.024;2022-12-16T06:35:55;-5.80;99.90
30889;DHT22;51092;50.874;7.024;2022-12-16T06:37:14;-5.60;99.90
30889;DHT22;51092;50.874;7.024;2022-12-16T06:38:34;-5.60;99.90
30889;DHT22;51092;50.874;7.024;2022-12-16T06:39:53;-5.60;99.90
30889;DHT22;51092;50.874;7.024;2022-12-16T06:41:12;-5.60;99.90
30889;DHT22;51092;50.874;7.024;2022-12-16T06:42:33;-5.60;99.90
30889;DHT22;51092;50.874;7.024;2022-12-16T06:43:53;-5.60;99.90
30889;DHT22;51092;50.874;7.024;2022-12-16T06:45:13;-5.60;99.90
30889;DHT22;51092;50.874;7.024;2022-12-16T06:46:33;-5.60;99.90
30889;DHT22;51092;50.874;7.024;2022-12-16T06:47:54;-5.60;99.90
30889;DHT22;51092;50.874;7.024;2022-12-16T06:49:14;-5.60;99.90
30889;DHT22;51092;50.874;7.024;2022-12-16T06:50:34;-5.70;99.90
30889;DHT22;51092;50.874;7.024;2022-12-16T06:51:54;-5.80;99.90
30889;DHT22;51092;50.874;7.024;2022-12-16T06:53:25;-5.70;99.90
30889;DHT22;51092;50.874;7.024;2022-12-16T06:54:44;-5.70;99.90
30889;DHT22;51092;50.874;7.024;2022-12-16T06:56:04;-5.60;99.90
30889;DHT22;51092;50.874;7.024;2022-12-16T06:57:26;-5.50;99.90
30889;DHT22;51092;50.874;7.024;2022-12-16T06:58:48;-5.50;99.90
30889;DHT22;51092;50.874;7.024;2022-12-16T07:00:09;-5.50;99.90
30889;DHT22;51092;50.874;7.024;2022-12-16T07:01:29;-5.50;99.90
30889;DHT22;51092;50.874;7.024;2022-12-16T07:02:49;-5.50;99.90
30889;DHT22;51092;50.874;7.024;2022-12-16T07:04:09;-5.50;99.90
30889;DHT22;51092;50.874;7.024;2022-12-16T07:05:29;-5.50;99.90
30889;DHT22;51092;50.874;7.024;2022-12-16T07:06:49;-5.50;99.90
30889;DHT22;51092;50.874;7.024;2022-12-16T07:08:09;-5.60;99.90
30889;DHT22;51092;50.874;7.024;2022-12-16T07:09:29;-5.60;99.90
30889;DHT22;51092;50.874;7.024;2022-12-16T07:10:48;-5.60;99.90
30889;DHT22;51092;50.874;7.024;2022-12-16T07:12:08;-5.50;99.90
30889;DHT22;51092;50.874;7.024;2022-12-16T07:13:28;-5.50;99.90
30889;DHT22;51092;50.874;7.024;2022-12-16T07:14:49;-5.50;99.90
30889;DHT22;51092;50.874;7.024;2022-12-16T07:16:09;-5.50;99.90
30889;DHT22;51092;50.874;7.024;2022-12-16T07:17:29;-5.50;99.90
30889;DHT22;51092;50.874;7.024;2022-12-16T07:18:49;-5.50;99.90
30889;DHT22;51092;50.874;7.024;2022-12-16T07:20:09;-5.40;99.90
30889;DHT22;51092;50.874;7.024;2022-12-16T07:21:29;-5.40;99.90
30889;DHT22;51092;50.874;7.024;2022-12-16T07:22:46;-5.30;99.90
30889;DHT22;51092;50.874;7.024;2022-12-16T07:24:06;-5.30;99.90
30889;DHT22;51092;50.874;7.024;2022-12-16T07:25:27;-5.20;99.90
30889;DHT22;51092;50.874;7.024;2022-12-16T07:26:58;-5.20;99.90
30889;DHT22;51092;50.874;7.024;2022-12-16T07:28:27;-5.20;99.90
30889;DHT22;51092;50.874;7.024;2022-12-16T07:29:48;-5.10;99.90
30889;DHT22;51092;50.874;7.024;2022-12-16T07:31:09;-5.10;99.90
30889;DHT22;51092;50.874;7.024;2022-12-16T07:32:29;-5.00;99.90